Accueil
METAR-TAF:

METAR-TAF

Aéroports :

Aéroport international d'Ushuaïa

Ushuaïa, Argentine

latitude: 54-48S, longitude: 068-19W, altitude: 16 m

Observation

Le bulletin a été fait il y a 32 minutes, à 00:00 UTC
Vent 21 kt de sud-ouest
Température 6°C
Humidité 75%
Pression 986 hPa
Visibilité 10 km ou plus
Nuages épars à une hauteur de 3000 ft
Nuages épars à une hauteur de 5000 ft

METAR: SAWH 180000Z 23021KT 9999 SCT030 SCT050 06/02 Q0986

Heure: 21:32 (00:32 UTC)

Prévision

Le bulletin a été fait il y a 1 heure et 32 minutes, à 23:00 UTC
Prévision valable du 18 à 00 UTC au 18 à 24 UTC
Vent 20 kt de sud-ouest avec des rafales jusqu'à 30 kt
Visibilité 10 km ou plus
Nuages fragmentés à une hauteur de 3000 ft
pluie faible
Evoluant progressivement
du 18 à 10 UTC au 18 à 12 UTC
Vent 5 kt de direction variable

TAF: SAWH 172300Z 1800/1824 23020G30KT 9999 -RA BKN030 TX10/1818Z TN04/1810Z BECMG 1810/1812 VRB05KT

Observations et prévisions météorologiques de plus de 4000 aéroports (messages METAR et TAF).

Les stations disponibles sont représentées par des disques jaunes et rouges sur la carte.

Passer la souris dessus pour voir le nom de la station.

Cliquer dessus pour voir les observations et prévisions météorologiques.

Pour changer de carte: cliquez sur les boutons verts avec une croix noire pour zoomer, sur le bouton vert avec un tiret pour effectuer un zoom arrière, ou sur les flèches vertes pour les cartes adjacentes.


METAR-TAF: